sensor_id;sensor_type;location;lat;lon;timestamp;P1;durP1;ratioP1;P2;durP2;ratioP2
3081;SDS011;1551;51.046;7.010;2023-05-28T00:02:16;11.00;;;6.20;;
3081;SDS011;1551;51.046;7.010;2023-05-28T00:05:05;10.35;;;6.30;;
3081;SDS011;1551;51.046;7.010;2023-05-28T00:07:54;8.50;;;6.30;;
3081;SDS011;1551;51.046;7.010;2023-05-28T00:10:45;8.77;;;6.30;;
3081;SDS011;1551;51.046;7.010;2023-05-28T00:13:34;9.52;;;6.60;;
3081;SDS011;1551;51.046;7.010;2023-05-28T00:16:22;8.80;;;5.88;;
3081;SDS011;1551;51.046;7.010;2023-05-28T00:19:11;10.48;;;5.63;;
3081;SDS011;1551;51.046;7.010;2023-05-28T00:24:54;9.07;;;5.40;;
3081;SDS011;1551;51.046;7.010;2023-05-28T00:27:43;11.27;;;5.97;;
3081;SDS011;1551;51.046;7.010;2023-05-28T00:30:32;8.27;;;5.18;;
3081;SDS011;1551;51.046;7.010;2023-05-28T00:33:21;11.90;;;5.65;;
3081;SDS011;1551;51.046;7.010;2023-05-28T00:36:10;11.55;;;5.78;;
3081;SDS011;1551;51.046;7.010;2023-05-28T00:39:01;6.82;;;5.88;;
3081;SDS011;1551;51.046;7.010;2023-05-28T00:42:00;10.20;;;4.90;;
3081;SDS011;1551;51.046;7.010;2023-05-28T00:44:52;9.93;;;5.13;;
3081;SDS011;1551;51.046;7.010;2023-05-28T00:47:40;8.20;;;5.10;;
3081;SDS011;1551;51.046;7.010;2023-05-28T00:50:30;9.30;;;5.43;;
3081;SDS011;1551;51.046;7.010;2023-05-28T00:53:19;8.38;;;5.50;;
3081;SDS011;1551;51.046;7.010;2023-05-28T00:56:09;7.25;;;5.22;;
3081;SDS011;1551;51.046;7.010;2023-05-28T00:59:01;9.38;;;5.63;;
3081;SDS011;1551;51.046;7.010;2023-05-28T01:01:50;7.37;;;5.10;;
3081;SDS011;1551;51.046;7.010;2023-05-28T01:04:39;8.27;;;5.50;;
3081;SDS011;1551;51.046;7.010;2023-05-28T01:07:28;7.45;;;5.00;;
3081;SDS011;1551;51.046;7.010;2023-05-28T01:10:18;7.82;;;4.85;;
3081;SDS011;1551;51.046;7.010;2023-05-28T01:13:07;9.35;;;5.15;;
3081;SDS011;1551;51.046;7.010;2023-05-28T01:15:57;10.40;;;5.80;;
3081;SDS011;1551;51.046;7.010;2023-05-28T01:18:47;8.75;;;5.60;;
3081;SDS011;1551;51.046;7.010;2023-05-28T01:21:37;8.40;;;5.47;;
3081;SDS011;1551;51.046;7.010;2023-05-28T01:24:33;8.23;;;5.30;;
3081;SDS011;1551;51.046;7.010;2023-05-28T01:27:25;7.67;;;5.10;;
3081;SDS011;1551;51.046;7.010;2023-05-28T01:30:14;7.90;;;5.35;;
3081;SDS011;1551;51.046;7.010;2023-05-28T01:33:05;6.88;;;4.80;;
3081;SDS011;1551;51.046;7.010;2023-05-28T01:35:54;5.60;;;4.30;;
3081;SDS011;1551;51.046;7.010;2023-05-28T01:38:49;5.88;;;4.60;;
3081;SDS011;1551;51.046;7.010;2023-05-28T01:41:45;7.78;;;5.10;;
3081;SDS011;1551;51.046;7.010;2023-05-28T01:44:36;7.15;;;4.97;;
3081;SDS011;1551;51.046;7.010;2023-05-28T01:47:26;6.90;;;4.78;;
3081;SDS011;1551;51.046;7.010;2023-05-28T01:50:16;7.18;;;4.40;;
3081;SDS011;1551;51.046;7.010;2023-05-28T01:53:06;8.27;;;4.70;;
3081;SDS011;1551;51.046;7.010;2023-05-28T01:55:55;7.32;;;5.00;;
3081;SDS011;1551;51.046;7.010;2023-05-28T01:58:44;7.75;;;5.10;;
3081;SDS011;1551;51.046;7.010;2023-05-28T02:01:34;9.43;;;5.57;;
3081;SDS011;1551;51.046;7.010;2023-05-28T02:04:27;8.80;;;5.00;;
3081;SDS011;1551;51.046;7.010;2023-05-28T02:07:16;7.60;;;4.50;;
3081;SDS011;1551;51.046;7.010;2023-05-28T02:10:05;7.90;;;4.72;;
3081;SDS011;1551;51.046;7.010;2023-05-28T02:12:55;8.07;;;5.40;;
3081;SDS011;1551;51.046;7.010;2023-05-28T02:15:44;7.32;;;4.60;;
3081;SDS011;1551;51.046;7.010;2023-05-28T02:18:35;9.10;;;4.97;;
3081;SDS011;1551;51.046;7.010;2023-05-28T02:21:25;8.18;;;5.07;;
3081;SDS011;1551;51.046;7.010;2023-05-28T02:24:14;8.50;;;5.20;;
3081;SDS011;1551;51.046;7.010;2023-05-28T02:27:05;7.40;;;5.10;;
3081;SDS011;1551;51.046;7.010;2023-05-28T02:29:54;6.30;;;4.80;;
3081;SDS011;1551;51.046;7.010;2023-05-28T02:32:44;7.35;;;5.00;;
3081;SDS011;1551;51.046;7.010;2023-05-28T02:35:33;8.30;;;4.80;;
3081;SDS011;1551;51.046;7.010;2023-05-28T02:38:23;6.70;;;4.75;;
3081;SDS011;1551;51.046;7.010;2023-05-28T02:41:13;8.70;;;5.70;;
3081;SDS011;1551;51.046;7.010;2023-05-28T02:44:08;8.18;;;5.03;;
3081;SDS011;1551;51.046;7.010;2023-05-28T02:46:57;8.63;;;5.50;;
3081;SDS011;1551;51.046;7.010;2023-05-28T02:49:46;7.50;;;5.03;;
3081;SDS011;1551;51.046;7.010;2023-05-28T02:52:36;7.00;;;5.50;;
3081;SDS011;1551;51.046;7.010;2023-05-28T02:55:25;6.50;;;4.90;;
3081;SDS011;1551;51.046;7.010;2023-05-28T02:58:14;8.27;;;5.40;;
3081;SDS011;1551;51.046;7.010;2023-05-28T03:01:03;9.50;;;5.30;;
3081;SDS011;1551;51.046;7.010;2023-05-28T03:03:53;6.70;;;4.60;;
3081;SDS011;1551;51.046;7.010;2023-05-28T03:06:45;6.55;;;5.13;;
3081;SDS011;1551;51.046;7.010;2023-05-28T03:09:35;9.35;;;6.70;;
3081;SDS011;1551;51.046;7.010;2023-05-28T03:12:25;9.48;;;6.45;;
3081;SDS011;1551;51.046;7.010;2023-05-28T03:15:14;7.85;;;6.70;;
3081;SDS011;1551;51.046;7.010;2023-05-28T03:18:03;8.93;;;5.82;;
3081;SDS011;1551;51.046;7.010;2023-05-28T03:20:57;8.50;;;5.77;;
3081;SDS011;1551;51.046;7.010;2023-05-28T03:23:46;8.70;;;5.45;;
3081;SDS011;1551;51.046;7.010;2023-05-28T03:26:50;9.15;;;5.55;;
3081;SDS011;1551;51.046;7.010;2023-05-28T03:29:44;8.13;;;5.53;;
3081;SDS011;1551;51.046;7.010;2023-05-28T03:32:40;6.80;;;5.07;;
3081;SDS011;1551;51.046;7.010;2023-05-28T03:35:29;8.90;;;5.10;;
3081;SDS011;1551;51.046;7.010;2023-05-28T03:38:18;7.97;;;5.13;;
3081;SDS011;1551;51.046;7.010;2023-05-28T03:41:08;9.53;;;5.63;;
3081;SDS011;1551;51.046;7.010;2023-05-28T03:43:58;6.25;;;5.03;;
3081;SDS011;1551;51.046;7.010;2023-05-28T03:46:48;6.00;;;5.15;;
3081;SDS011;1551;51.046;7.010;2023-05-28T03:49:36;10.20;;;5.10;;
3081;SDS011;1551;51.046;7.010;2023-05-28T03:52:26;9.27;;;4.78;;
3081;SDS011;1551;51.046;7.010;2023-05-28T03:55:17;7.35;;;5.45;;
3081;SDS011;1551;51.046;7.010;2023-05-28T03:58:06;6.10;;;4.53;;
3081;SDS011;1551;51.046;7.010;2023-05-28T04:00:55;9.23;;;5.40;;
3081;SDS011;1551;51.046;7.010;2023-05-28T04:03:44;6.70;;;4.90;;
3081;SDS011;1551;51.046;7.010;2023-05-28T04:06:33;9.00;;;5.93;;
3081;SDS011;1551;51.046;7.010;2023-05-28T04:09:22;7.85;;;5.70;;
3081;SDS011;1551;51.046;7.010;2023-05-28T04:12:12;9.60;;;5.35;;
3081;SDS011;1551;51.046;7.010;2023-05-28T04:15:01;6.45;;;4.60;;
3081;SDS011;1551;51.046;7.010;2023-05-28T04:17:51;8.70;;;5.63;;
3081;SDS011;1551;51.046;7.010;2023-05-28T04:20:40;6.10;;;4.40;;
3081;SDS011;1551;51.046;7.010;2023-05-28T04:23:30;6.60;;;4.57;;
3081;SDS011;1551;51.046;7.010;2023-05-28T04:26:20;8.03;;;5.00;;
3081;SDS011;1551;51.046;7.010;2023-05-28T04:29:10;7.72;;;5.10;;
3081;SDS011;1551;51.046;7.010;2023-05-28T04:32:01;6.80;;;5.00;;
3081;SDS011;1551;51.046;7.010;2023-05-28T04:34:52;7.43;;;4.38;;
3081;SDS011;1551;51.046;7.010;2023-05-28T04:37:42;6.90;;;4.72;;
3081;SDS011;1551;51.046;7.010;2023-05-28T04:40:33;8.52;;;4.90;;
3081;SDS011;1551;51.046;7.010;2023-05-28T04:43:22;7.28;;;4.80;;
3081;SDS011;1551;51.046;7.010;2023-05-28T04:46:12;7.15;;;4.90;;
3081;SDS011;1551;51.046;7.010;2023-05-28T04:49:03;7.40;;;4.97;;
3081;SDS011;1551;51.046;7.010;2023-05-28T04:51:53;9.30;;;5.10;;
3081;SDS011;1551;51.046;7.010;2023-05-28T04:54:43;8.70;;;5.00;;
3081;SDS011;1551;51.046;7.010;2023-05-28T04:57:33;8.35;;;4.90;;
3081;SDS011;1551;51.046;7.010;2023-05-28T05:00:24;7.05;;;4.70;;
3081;SDS011;1551;51.046;7.010;2023-05-28T05:03:16;6.57;;;4.50;;
3081;SDS011;1551;51.046;7.010;2023-05-28T05:06:05;7.30;;;4.80;;
3081;SDS011;1551;51.046;7.010;2023-05-28T05:08:56;7.80;;;5.00;;
3081;SDS011;1551;51.046;7.010;2023-05-28T05:11:45;6.70;;;5.33;;
3081;SDS011;1551;51.046;7.010;2023-05-28T05:14:34;7.80;;;5.43;;
3081;SDS011;1551;51.046;7.010;2023-05-28T05:17:24;7.93;;;5.90;;
3081;SDS011;1551;51.046;7.010;2023-05-28T05:20:13;8.52;;;5.10;;
3081;SDS011;1551;51.046;7.010;2023-05-28T05:23:02;10.45;;;5.70;;
3081;SDS011;1551;51.046;7.010;2023-05-28T05:25:52;9.15;;;5.85;;
3081;SDS011;1551;51.046;7.010;2023-05-28T05:28:41;7.53;;;5.38;;
3081;SDS011;1551;51.046;7.010;2023-05-28T05:31:30;10.75;;;6.07;;
3081;SDS011;1551;51.046;7.010;2023-05-28T05:34:20;6.90;;;5.38;;
3081;SDS011;1551;51.046;7.010;2023-05-28T05:37:12;8.00;;;5.55;;
3081;SDS011;1551;51.046;7.010;2023-05-28T05:40:09;7.90;;;4.90;;
3081;SDS011;1551;51.046;7.010;2023-05-28T05:43:19;8.57;;;6.00;;
3081;SDS011;1551;51.046;7.010;2023-05-28T05:46:08;8.27;;;5.20;;
3081;SDS011;1551;51.046;7.010;2023-05-28T05:48:56;9.60;;;5.45;;
3081;SDS011;1551;51.046;7.010;2023-05-28T05:51:45;7.75;;;4.65;;
3081;SDS011;1551;51.046;7.010;2023-05-28T05:54:35;8.00;;;5.07;;
3081;SDS011;1551;51.046;7.010;2023-05-28T05:57:25;8.80;;;4.80;;
3081;SDS011;1551;51.046;7.010;2023-05-28T06:00:16;9.70;;;4.70;;
3081;SDS011;1551;51.046;7.010;2023-05-28T06:03:16;6.25;;;4.32;;
3081;SDS011;1551;51.046;7.010;2023-05-28T06:06:31;7.20;;;4.65;;
3081;SDS011;1551;51.046;7.010;2023-05-28T06:09:26;6.93;;;4.72;;
3081;SDS011;1551;51.046;7.010;2023-05-28T06:12:18;9.20;;;4.40;;
3081;SDS011;1551;51.046;7.010;2023-05-28T06:15:07;8.23;;;4.78;;
3081;SDS011;1551;51.046;7.010;2023-05-28T06:17:57;6.97;;;4.10;;
3081;SDS011;1551;51.046;7.010;2023-05-28T06:20:47;9.00;;;4.38;;
3081;SDS011;1551;51.046;7.010;2023-05-28T06:23:38;7.72;;;4.13;;
3081;SDS011;1551;51.046;7.010;2023-05-28T06:26:28;6.15;;;3.97;;
3081;SDS011;1551;51.046;7.010;2023-05-28T06:29:18;7.03;;;4.10;;
3081;SDS011;1551;51.046;7.010;2023-05-28T06:32:08;6.63;;;4.20;;
3081;SDS011;1551;51.046;7.010;2023-05-28T06:34:57;5.80;;;4.20;;
3081;SDS011;1551;51.046;7.010;2023-05-28T06:37:49;7.55;;;4.10;;
3081;SDS011;1551;51.046;7.010;2023-05-28T06:40:38;6.77;;;3.57;;
3081;SDS011;1551;51.046;7.010;2023-05-28T06:43:28;7.28;;;3.70;;
3081;SDS011;1551;51.046;7.010;2023-05-28T06:46:32;7.20;;;3.70;;
3081;SDS011;1551;51.046;7.010;2023-05-28T06:49:21;7.80;;;4.33;;
3081;SDS011;1551;51.046;7.010;2023-05-28T06:52:11;5.80;;;3.63;;
3081;SDS011;1551;51.046;7.010;2023-05-28T06:55:00;10.20;;;4.03;;
3081;SDS011;1551;51.046;7.010;2023-05-28T06:57:54;6.30;;;3.30;;
3081;SDS011;1551;51.046;7.010;2023-05-28T07:01:12;5.90;;;3.78;;
3081;SDS011;1551;51.046;7.010;2023-05-28T07:04:20;7.55;;;3.78;;
3081;SDS011;1551;51.046;7.010;2023-05-28T07:07:11;8.68;;;3.67;;
3081;SDS011;1551;51.046;7.010;2023-05-28T07:10:00;6.93;;;3.47;;
3081;SDS011;1551;51.046;7.010;2023-05-28T07:12:51;5.47;;;3.60;;
3081;SDS011;1551;51.046;7.010;2023-05-28T07:15:40;4.97;;;3.38;;
3081;SDS011;1551;51.046;7.010;2023-05-28T07:18:30;6.07;;;3.38;;
3081;SDS011;1551;51.046;7.010;2023-05-28T07:21:20;6.50;;;3.55;;
3081;SDS011;1551;51.046;7.010;2023-05-28T07:24:10;6.20;;;3.00;;
3081;SDS011;1551;51.046;7.010;2023-05-28T07:26:59;7.63;;;3.80;;
3081;SDS011;1551;51.046;7.010;2023-05-28T07:29:50;5.47;;;3.05;;
3081;SDS011;1551;51.046;7.010;2023-05-28T07:32:41;7.18;;;3.60;;
3081;SDS011;1551;51.046;7.010;2023-05-28T07:35:31;5.37;;;3.50;;
3081;SDS011;1551;51.046;7.010;2023-05-28T07:38:20;6.37;;;3.20;;
3081;SDS011;1551;51.046;7.010;2023-05-28T07:41:12;8.15;;;3.40;;
3081;SDS011;1551;51.046;7.010;2023-05-28T07:44:17;5.65;;;3.00;;
3081;SDS011;1551;51.046;7.010;2023-05-28T07:47:06;6.82;;;3.55;;
3081;SDS011;1551;51.046;7.010;2023-05-28T07:50:14;5.30;;;3.10;;
3081;SDS011;1551;51.046;7.010;2023-05-28T07:53:21;5.60;;;3.50;;
3081;SDS011;1551;51.046;7.010;2023-05-28T07:56:11;8.00;;;3.60;;
3081;SDS011;1551;51.046;7.010;2023-05-28T07:59:02;6.60;;;3.50;;
3081;SDS011;1551;51.046;7.010;2023-05-28T08:01:53;7.53;;;3.73;;
3081;SDS011;1551;51.046;7.010;2023-05-28T08:04:43;6.72;;;3.60;;
3081;SDS011;1551;51.046;7.010;2023-05-28T08:07:32;8.07;;;4.20;;
3081;SDS011;1551;51.046;7.010;2023-05-28T08:10:21;5.70;;;3.60;;
3081;SDS011;1551;51.046;7.010;2023-05-28T08:13:10;7.78;;;4.10;;
3081;SDS011;1551;51.046;7.010;2023-05-28T08:16:00;5.78;;;3.25;;
3081;SDS011;1551;51.046;7.010;2023-05-28T08:18:55;9.43;;;4.00;;
3081;SDS011;1551;51.046;7.010;2023-05-28T08:21:45;8.27;;;4.10;;
3081;SDS011;1551;51.046;7.010;2023-05-28T08:24:37;6.82;;;3.83;;
3081;SDS011;1551;51.046;7.010;2023-05-28T08:27:27;8.68;;;4.18;;
3081;SDS011;1551;51.046;7.010;2023-05-28T08:30:16;7.43;;;4.30;;
3081;SDS011;1551;51.046;7.010;2023-05-28T08:33:14;7.97;;;4.00;;
3081;SDS011;1551;51.046;7.010;2023-05-28T08:36:03;5.60;;;3.80;;
3081;SDS011;1551;51.046;7.010;2023-05-28T08:38:54;6.13;;;3.60;;
3081;SDS011;1551;51.046;7.010;2023-05-28T08:41:44;6.83;;;3.87;;
3081;SDS011;1551;51.046;7.010;2023-05-28T08:44:34;6.30;;;3.80;;
3081;SDS011;1551;51.046;7.010;2023-05-28T08:47:24;5.57;;;3.58;;
3081;SDS011;1551;51.046;7.010;2023-05-28T08:50:24;8.27;;;3.58;;
3081;SDS011;1551;51.046;7.010;2023-05-28T08:53:31;5.60;;;3.53;;
3081;SDS011;1551;51.046;7.010;2023-05-28T08:56:24;5.10;;;3.05;;
3081;SDS011;1551;51.046;7.010;2023-05-28T08:59:15;7.03;;;4.03;;
3081;SDS011;1551;51.046;7.010;2023-05-28T09:02:06;6.90;;;3.50;;
3081;SDS011;1551;51.046;7.010;2023-05-28T09:04:57;4.65;;;2.70;;
3081;SDS011;1551;51.046;7.010;2023-05-28T09:07:48;5.32;;;2.95;;
3081;SDS011;1551;51.046;7.010;2023-05-28T09:10:37;3.95;;;2.70;;
3081;SDS011;1551;51.046;7.010;2023-05-28T09:13:27;6.30;;;3.10;;
3081;SDS011;1551;51.046;7.010;2023-05-28T09:16:20;7.05;;;3.10;;
3081;SDS011;1551;51.046;7.010;2023-05-28T09:19:14;6.03;;;2.80;;
3081;SDS011;1551;51.046;7.010;2023-05-28T09:22:05;5.50;;;3.20;;
3081;SDS011;1551;51.046;7.010;2023-05-28T09:25:01;5.10;;;3.08;;
3081;SDS011;1551;51.046;7.010;2023-05-28T09:27:59;4.72;;;2.90;;
3081;SDS011;1551;51.046;7.010;2023-05-28T09:30:49;4.43;;;3.10;;
3081;SDS011;1551;51.046;7.010;2023-05-28T09:33:41;6.50;;;2.80;;
3081;SDS011;1551;51.046;7.010;2023-05-28T09:36:35;5.80;;;3.80;;
3081;SDS011;1551;51.046;7.010;2023-05-28T09:39:24;7.25;;;3.35;;
3081;SDS011;1551;51.046;7.010;2023-05-28T09:42:15;6.15;;;2.83;;
3081;SDS011;1551;51.046;7.010;2023-05-28T09:45:04;5.50;;;2.88;;
3081;SDS011;1551;51.046;7.010;2023-05-28T09:47:54;4.35;;;3.00;;
3081;SDS011;1551;51.046;7.010;2023-05-28T09:50:43;4.60;;;3.30;;
3081;SDS011;1551;51.046;7.010;2023-05-28T09:53:33;3.70;;;2.55;;
3081;SDS011;1551;51.046;7.010;2023-05-28T09:56:29;4.47;;;2.70;;
3081;SDS011;1551;51.046;7.010;2023-05-28T09:59:24;8.57;;;7.73;;
3081;SDS011;1551;51.046;7.010;2023-05-28T10:02:32;8.82;;;6.70;;
3081;SDS011;1551;51.046;7.010;2023-05-28T10:05:31;6.45;;;3.95;;
3081;SDS011;1551;51.046;7.010;2023-05-28T10:08:22;4.32;;;3.15;;
3081;SDS011;1551;51.046;7.010;2023-05-28T10:11:15;5.75;;;3.30;;
3081;SDS011;1551;51.046;7.010;2023-05-28T10:14:05;4.73;;;2.80;;
3081;SDS011;1551;51.046;7.010;2023-05-28T10:16:54;4.80;;;3.20;;
3081;SDS011;1551;51.046;7.010;2023-05-28T10:19:44;4.72;;;2.85;;
3081;SDS011;1551;51.046;7.010;2023-05-28T10:22:37;6.03;;;2.53;;
3081;SDS011;1551;51.046;7.010;2023-05-28T10:25:28;5.45;;;2.92;;
3081;SDS011;1551;51.046;7.010;2023-05-28T10:28:18;4.90;;;3.10;;
3081;SDS011;1551;51.046;7.010;2023-05-28T10:31:09;6.90;;;2.88;;
3081;SDS011;1551;51.046;7.010;2023-05-28T10:33:59;4.85;;;3.08;;
3081;SDS011;1551;51.046;7.010;2023-05-28T10:36:49;4.60;;;2.97;;
3081;SDS011;1551;51.046;7.010;2023-05-28T10:39:41;8.07;;;3.00;;
3081;SDS011;1551;51.046;7.010;2023-05-28T10:42:38;4.38;;;3.13;;
3081;SDS011;1551;51.046;7.010;2023-05-28T10:45:35;5.15;;;3.08;;
3081;SDS011;1551;51.046;7.010;2023-05-28T10:48:24;5.10;;;3.30;;
3081;SDS011;1551;51.046;7.010;2023-05-28T10:51:13;4.32;;;2.80;;
3081;SDS011;1551;51.046;7.010;2023-05-28T10:54:12;3.87;;;2.50;;
3081;SDS011;1551;51.046;7.010;2023-05-28T10:57:05;4.00;;;2.88;;
3081;SDS011;1551;51.046;7.010;2023-05-28T11:00:02;6.40;;;3.10;;
3081;SDS011;1551;51.046;7.010;2023-05-28T11:02:56;5.47;;;3.10;;
3081;SDS011;1551;51.046;7.010;2023-05-28T11:05:45;5.00;;;3.20;;
3081;SDS011;1551;51.046;7.010;2023-05-28T11:08:39;5.55;;;3.35;;
3081;SDS011;1551;51.046;7.010;2023-05-28T11:11:30;6.32;;;3.15;;
3081;SDS011;1551;51.046;7.010;2023-05-28T11:14:20;5.72;;;2.97;;
3081;SDS011;1551;51.046;7.010;2023-05-28T11:17:09;5.47;;;3.55;;
3081;SDS011;1551;51.046;7.010;2023-05-28T11:19:59;4.33;;;3.53;;
3081;SDS011;1551;51.046;7.010;2023-05-28T11:22:48;4.90;;;3.30;;
3081;SDS011;1551;51.046;7.010;2023-05-28T11:25:41;4.40;;;3.10;;
3081;SDS011;1551;51.046;7.010;2023-05-28T11:28:31;5.00;;;3.28;;
3081;SDS011;1551;51.046;7.010;2023-05-28T11:31:20;6.50;;;5.18;;
3081;SDS011;1551;51.046;7.010;2023-05-28T11:34:10;4.82;;;3.30;;
3081;SDS011;1551;51.046;7.010;2023-05-28T11:36:59;4.93;;;3.22;;
3081;SDS011;1551;51.046;7.010;2023-05-28T11:39:49;5.45;;;3.50;;
3081;SDS011;1551;51.046;7.010;2023-05-28T11:42:40;6.10;;;2.90;;
3081;SDS011;1551;51.046;7.010;2023-05-28T11:45:35;4.95;;;3.30;;
3081;SDS011;1551;51.046;7.010;2023-05-28T11:48:26;5.28;;;3.10;;
3081;SDS011;1551;51.046;7.010;2023-05-28T11:51:17;4.97;;;3.47;;
3081;SDS011;1551;51.046;7.010;2023-05-28T11:54:08;4.68;;;3.20;;
3081;SDS011;1551;51.046;7.010;2023-05-28T11:56:57;5.95;;;3.67;;
3081;SDS011;1551;51.046;7.010;2023-05-28T11:59:53;6.80;;;3.20;;
3081;SDS011;1551;51.046;7.010;2023-05-28T12:02:59;7.45;;;3.47;;
3081;SDS011;1551;51.046;7.010;2023-05-28T12:05:48;4.28;;;3.08;;
3081;SDS011;1551;51.046;7.010;2023-05-28T12:08:38;5.93;;;3.30;;
3081;SDS011;1551;51.046;7.010;2023-05-28T12:11:28;7.65;;;3.60;;
3081;SDS011;1551;51.046;7.010;2023-05-28T12:14:17;5.40;;;3.58;;
3081;SDS011;1551;51.046;7.010;2023-05-28T12:17:07;7.50;;;3.80;;
3081;SDS011;1551;51.046;7.010;2023-05-28T12:19:57;4.38;;;3.05;;
3081;SDS011;1551;51.046;7.010;2023-05-28T12:25:46;6.35;;;2.88;;
3081;SDS011;1551;51.046;7.010;2023-05-28T12:28:36;3.97;;;3.20;;
3081;SDS011;1551;51.046;7.010;2023-05-28T12:31:28;6.85;;;3.40;;
3081;SDS011;1551;51.046;7.010;2023-05-28T12:34:17;5.20;;;3.20;;
3081;SDS011;1551;51.046;7.010;2023-05-28T12:37:06;4.20;;;2.95;;
3081;SDS011;1551;51.046;7.010;2023-05-28T12:39:56;5.60;;;3.13;;
3081;SDS011;1551;51.046;7.010;2023-05-28T12:42:44;4.90;;;3.00;;
3081;SDS011;1551;51.046;7.010;2023-05-28T12:45:34;5.70;;;3.00;;
3081;SDS011;1551;51.046;7.010;2023-05-28T12:48:23;4.00;;;2.88;;
3081;SDS011;1551;51.046;7.010;2023-05-28T12:51:12;6.32;;;3.70;;
3081;SDS011;1551;51.046;7.010;2023-05-28T12:54:02;6.43;;;3.55;;
3081;SDS011;1551;51.046;7.010;2023-05-28T12:56:51;4.95;;;3.17;;
3081;SDS011;1551;51.046;7.010;2023-05-28T12:59:40;4.25;;;3.30;;
3081;SDS011;1551;51.046;7.010;2023-05-28T13:02:29;5.68;;;3.50;;
3081;SDS011;1551;51.046;7.010;2023-05-28T13:05:18;5.18;;;3.78;;
3081;SDS011;1551;51.046;7.010;2023-05-28T13:08:07;5.30;;;3.80;;
3081;SDS011;1551;51.046;7.010;2023-05-28T13:10:56;5.57;;;3.88;;
3081;SDS011;1551;51.046;7.010;2023-05-28T13:13:45;5.47;;;3.65;;
3081;SDS011;1551;51.046;7.010;2023-05-28T13:16:37;6.00;;;4.60;;
3081;SDS011;1551;51.046;7.010;2023-05-28T13:19:26;6.30;;;3.00;;
3081;SDS011;1551;51.046;7.010;2023-05-28T13:22:16;5.55;;;3.47;;
3081;SDS011;1551;51.046;7.010;2023-05-28T13:25:05;4.88;;;3.35;;
3081;SDS011;1551;51.046;7.010;2023-05-28T13:27:55;4.60;;;3.30;;
3081;SDS011;1551;51.046;7.010;2023-05-28T13:30:44;4.68;;;3.40;;
3081;SDS011;1551;51.046;7.010;2023-05-28T13:33:33;5.35;;;3.25;;
3081;SDS011;1551;51.046;7.010;2023-05-28T13:36:23;5.43;;;3.30;;
3081;SDS011;1551;51.046;7.010;2023-05-28T13:39:12;4.90;;;3.15;;
3081;SDS011;1551;51.046;7.010;2023-05-28T13:42:01;4.82;;;3.00;;
3081;SDS011;1551;51.046;7.010;2023-05-28T13:44:51;5.60;;;3.50;;
3081;SDS011;1551;51.046;7.010;2023-05-28T13:47:41;5.10;;;3.10;;
3081;SDS011;1551;51.046;7.010;2023-05-28T13:50:30;4.18;;;3.05;;
3081;SDS011;1551;51.046;7.010;2023-05-28T13:53:19;5.88;;;3.50;;
3081;SDS011;1551;51.046;7.010;2023-05-28T13:56:08;5.63;;;3.90;;
3081;SDS011;1551;51.046;7.010;2023-05-28T13:58:57;5.38;;;4.00;;
3081;SDS011;1551;51.046;7.010;2023-05-28T14:01:46;5.20;;;3.30;;
3081;SDS011;1551;51.046;7.010;2023-05-28T14:04:35;5.57;;;3.13;;
3081;SDS011;1551;51.046;7.010;2023-05-28T14:07:24;5.57;;;3.60;;
3081;SDS011;1551;51.046;7.010;2023-05-28T14:10:13;5.70;;;3.22;;
3081;SDS011;1551;51.046;7.010;2023-05-28T14:13:02;4.30;;;2.60;;
3081;SDS011;1551;51.046;7.010;2023-05-28T14:15:51;4.40;;;3.30;;
3081;SDS011;1551;51.046;7.010;2023-05-28T14:18:40;7.72;;;5.28;;
3081;SDS011;1551;51.046;7.010;2023-05-28T14:21:29;5.00;;;4.20;;
3081;SDS011;1551;51.046;7.010;2023-05-28T14:24:18;4.85;;;3.40;;
3081;SDS011;1551;51.046;7.010;2023-05-28T14:27:07;5.13;;;3.13;;
3081;SDS011;1551;51.046;7.010;2023-05-28T14:29:57;4.60;;;3.20;;
3081;SDS011;1551;51.046;7.010;2023-05-28T14:32:46;4.90;;;2.92;;
3081;SDS011;1551;51.046;7.010;2023-05-28T14:35:35;7.28;;;3.25;;
3081;SDS011;1551;51.046;7.010;2023-05-28T14:38:23;5.18;;;3.00;;
3081;SDS011;1551;51.046;7.010;2023-05-28T14:41:12;4.72;;;2.70;;
3081;SDS011;1551;51.046;7.010;2023-05-28T14:44:01;4.30;;;3.20;;
3081;SDS011;1551;51.046;7.010;2023-05-28T14:46:51;5.13;;;3.20;;
3081;SDS011;1551;51.046;7.010;2023-05-28T14:49:40;6.05;;;2.92;;
3081;SDS011;1551;51.046;7.010;2023-05-28T14:52:29;5.30;;;3.13;;
3081;SDS011;1551;51.046;7.010;2023-05-28T14:55:22;5.63;;;2.80;;
3081;SDS011;1551;51.046;7.010;2023-05-28T14:58:11;4.25;;;2.75;;
3081;SDS011;1551;51.046;7.010;2023-05-28T15:01:00;4.85;;;2.92;;
3081;SDS011;1551;51.046;7.010;2023-05-28T15:03:51;4.25;;;2.80;;
3081;SDS011;1551;51.046;7.010;2023-05-28T15:06:40;4.20;;;2.40;;
3081;SDS011;1551;51.046;7.010;2023-05-28T15:09:29;5.78;;;4.80;;
3081;SDS011;1551;51.046;7.010;2023-05-28T15:12:18;4.60;;;2.50;;
3081;SDS011;1551;51.046;7.010;2023-05-28T15:15:07;5.40;;;2.65;;
3081;SDS011;1551;51.046;7.010;2023-05-28T15:17:57;4.40;;;2.60;;
3081;SDS011;1551;51.046;7.010;2023-05-28T15:20:46;3.90;;;2.30;;
3081;SDS011;1551;51.046;7.010;2023-05-28T15:23:35;4.07;;;2.45;;
3081;SDS011;1551;51.046;7.010;2023-05-28T15:26:24;4.80;;;3.30;;
3081;SDS011;1551;51.046;7.010;2023-05-28T15:29:15;4.95;;;2.70;;
3081;SDS011;1551;51.046;7.010;2023-05-28T15:32:04;3.78;;;2.53;;
3081;SDS011;1551;51.046;7.010;2023-05-28T15:34:56;4.32;;;2.80;;
3081;SDS011;1551;51.046;7.010;2023-05-28T15:37:45;3.78;;;2.50;;
3081;SDS011;1551;51.046;7.010;2023-05-28T15:40:35;4.05;;;2.40;;
3081;SDS011;1551;51.046;7.010;2023-05-28T15:43:25;6.22;;;2.70;;
3081;SDS011;1551;51.046;7.010;2023-05-28T15:46:14;4.70;;;2.90;;
3081;SDS011;1551;51.046;7.010;2023-05-28T15:49:03;4.70;;;2.42;;
3081;SDS011;1551;51.046;7.010;2023-05-28T15:51:52;5.90;;;2.50;;
3081;SDS011;1551;51.046;7.010;2023-05-28T15:54:41;4.40;;;2.40;;
3081;SDS011;1551;51.046;7.010;2023-05-28T15:57:30;5.87;;;4.30;;
3081;SDS011;1551;51.046;7.010;2023-05-28T16:00:19;4.93;;;3.65;;
3081;SDS011;1551;51.046;7.010;2023-05-28T16:03:11;4.50;;;3.17;;
3081;SDS011;1551;51.046;7.010;2023-05-28T16:06:02;4.10;;;2.90;;
3081;SDS011;1551;51.046;7.010;2023-05-28T16:08:52;5.53;;;2.80;;
3081;SDS011;1551;51.046;7.010;2023-05-28T16:11:42;3.38;;;2.53;;
3081;SDS011;1551;51.046;7.010;2023-05-28T16:14:34;6.50;;;2.53;;
3081;SDS011;1551;51.046;7.010;2023-05-28T16:17:23;4.75;;;2.58;;
3081;SDS011;1551;51.046;7.010;2023-05-28T16:20:17;4.22;;;2.35;;
3081;SDS011;1551;51.046;7.010;2023-05-28T16:23:06;5.43;;;2.30;;
3081;SDS011;1551;51.046;7.010;2023-05-28T16:25:55;5.13;;;2.70;;
3081;SDS011;1551;51.046;7.010;2023-05-28T16:28:45;7.15;;;2.80;;
3081;SDS011;1551;51.046;7.010;2023-05-28T16:31:36;4.43;;;2.75;;
3081;SDS011;1551;51.046;7.010;2023-05-28T16:34:26;5.40;;;2.50;;
3081;SDS011;1551;51.046;7.010;2023-05-28T16:37:16;4.95;;;2.38;;
3081;SDS011;1551;51.046;7.010;2023-05-28T16:40:06;6.47;;;2.50;;
3081;SDS011;1551;51.046;7.010;2023-05-28T16:42:57;4.05;;;2.80;;
3081;SDS011;1551;51.046;7.010;2023-05-28T16:45:47;4.72;;;2.53;;
3081;SDS011;1551;51.046;7.010;2023-05-28T16:48:36;4.50;;;2.80;;
3081;SDS011;1551;51.046;7.010;2023-05-28T16:51:26;5.30;;;2.38;;
3081;SDS011;1551;51.046;7.010;2023-05-28T16:54:17;5.57;;;2.70;;
3081;SDS011;1551;51.046;7.010;2023-05-28T16:57:07;5.78;;;2.60;;
3081;SDS011;1551;51.046;7.010;2023-05-28T16:59:56;6.95;;;2.70;;
3081;SDS011;1551;51.046;7.010;2023-05-28T17:02:46;5.45;;;2.67;;
3081;SDS011;1551;51.046;7.010;2023-05-28T17:05:38;4.75;;;2.50;;
3081;SDS011;1551;51.046;7.010;2023-05-28T17:08:27;5.50;;;2.70;;
3081;SDS011;1551;51.046;7.010;2023-05-28T17:11:17;4.90;;;2.67;;
3081;SDS011;1551;51.046;7.010;2023-05-28T17:14:06;5.07;;;2.63;;
3081;SDS011;1551;51.046;7.010;2023-05-28T17:16:55;6.93;;;2.25;;
3081;SDS011;1551;51.046;7.010;2023-05-28T17:19:44;6.00;;;3.00;;
3081;SDS011;1551;51.046;7.010;2023-05-28T17:22:34;4.90;;;2.45;;
3081;SDS011;1551;51.046;7.010;2023-05-28T17:25:24;5.10;;;3.00;;
3081;SDS011;1551;51.046;7.010;2023-05-28T17:28:12;5.45;;;2.80;;
3081;SDS011;1551;51.046;7.010;2023-05-28T17:31:01;7.17;;;2.97;;
3081;SDS011;1551;51.046;7.010;2023-05-28T17:33:51;5.07;;;2.80;;
3081;SDS011;1551;51.046;7.010;2023-05-28T17:36:40;6.10;;;3.00;;
3081;SDS011;1551;51.046;7.010;2023-05-28T17:39:29;4.15;;;2.92;;
3081;SDS011;1551;51.046;7.010;2023-05-28T17:42:17;4.82;;;2.85;;
3081;SDS011;1551;51.046;7.010;2023-05-28T17:45:06;5.10;;;2.97;;
3081;SDS011;1551;51.046;7.010;2023-05-28T17:47:56;5.32;;;2.67;;